Yorkana, Pennsylvania
Current Conditions -  °F | °C
As of 10:56 AM on Sunday 23 Nov 2014 (Local Time) from KMDT Reporting Station
Broken Clouds Broken Clouds  
Wind Chill: 45°   Ceiling: 25000
Heat Index: 45°   Visibility: 10mi
Dew Point: 24°   Wind: 3mph
Humidity: 44%   Direction: 170°S
Pressure: 30.18"   Gusts: NA
Location:  40.0152°N, 76.5974°W
Report Text: KMDT 231556Z 17003KT 10SM FEW110 BKN250 07/M04 A3018 RMK AO2 SLP222 T00721044
Loading
Personal Weather Stations






























Interactive Weather Map New forecast layout! Learn more

10-Day Weather Forecast

Advertisements
Track Severe Weather on mobile